createdAt,value
2022-12-31T00:01:18.234Z,1.90
2022-12-31T00:03:46.916Z,4.00
2022-12-31T00:06:19.198Z,2.60
2022-12-31T00:08:48.293Z,3.10
2022-12-31T00:11:16.967Z,2.07
2022-12-31T00:13:46.568Z,2.40
2022-12-31T00:16:19.922Z,2.20
2022-12-31T00:18:49.963Z,1.80
2022-12-31T00:21:20.511Z,2.17
2022-12-31T00:23:48.973Z,2.60
2022-12-31T00:26:18.989Z,1.87
2022-12-31T00:28:47.200Z,1.93
2022-12-31T00:31:17.166Z,2.83
2022-12-31T00:33:46.118Z,1.97
2022-12-31T00:36:15.995Z,2.10
2022-12-31T00:38:48.068Z,2.00
2022-12-31T00:41:17.790Z,1.47
2022-12-31T00:43:46.957Z,1.70
2022-12-31T00:46:15.938Z,1.43
2022-12-31T00:48:45.108Z,1.50
2022-12-31T00:51:15.425Z,1.63
2022-12-31T00:53:45.689Z,1.40
2022-12-31T00:56:16.018Z,0.70
2022-12-31T00:58:44.986Z,2.20
2022-12-31T01:01:16.078Z,0.90
2022-12-31T01:03:44.414Z,0.73
2022-12-31T01:06:12.999Z,2.87
2022-12-31T01:08:41.505Z,1.03
2022-12-31T01:11:29.813Z,1.70
2022-12-31T01:14:01.435Z,3.90
2022-12-31T01:16:33.419Z,8.17
2022-12-31T01:19:03.551Z,12.37
2022-12-31T01:21:33.546Z,9.57
2022-12-31T01:24:01.846Z,12.27
2022-12-31T01:26:32.189Z,14.30
2022-12-31T01:29:00.487Z,12.47
2022-12-31T01:31:29.299Z,13.57
2022-12-31T01:33:58.716Z,14.97
2022-12-31T01:36:28.427Z,13.60
2022-12-31T01:38:59.035Z,8.43
2022-12-31T01:41:30.926Z,3.40
2022-12-31T01:44:02.571Z,2.83
2022-12-31T01:46:38.367Z,1.87
2022-12-31T01:49:12.062Z,2.63
2022-12-31T01:51:42.251Z,1.83
2022-12-31T01:54:14.309Z,3.10
2022-12-31T01:56:44.922Z,1.30
2022-12-31T01:59:17.934Z,1.50
2022-12-31T02:01:48.358Z,1.43
2022-12-31T02:04:17.622Z,2.30
2022-12-31T02:06:49.957Z,0.80
2022-12-31T02:09:18.235Z,1.27
2022-12-31T02:11:46.508Z,1.10
2022-12-31T02:14:19.376Z,2.30
2022-12-31T02:16:55.846Z,1.53
2022-12-31T02:20:13.715Z,0.90
2022-12-31T02:23:16.327Z,1.83
2022-12-31T02:26:08.762Z,1.40
2022-12-31T02:28:54.880Z,1.20
2022-12-31T02:31:30.792Z,1.20
2022-12-31T02:34:03.629Z,1.60
2022-12-31T02:36:37.836Z,3.57
2022-12-31T02:39:08.695Z,3.77
2022-12-31T02:41:52.256Z,2.80
2022-12-31T02:44:26.628Z,1.20
2022-12-31T02:47:09.599Z,1.30
2022-12-31T02:49:49.081Z,1.10
2022-12-31T02:52:25.808Z,1.67
2022-12-31T02:55:03.995Z,0.80
2022-12-31T02:57:39.808Z,1.63
2022-12-31T03:00:28.322Z,1.77
2022-12-31T03:02:59.790Z,1.30
2022-12-31T03:05:30.559Z,0.63
2022-12-31T03:07:59.197Z,1.37
2022-12-31T03:10:27.426Z,1.27
2022-12-31T03:12:55.082Z,1.60
2022-12-31T03:15:25.084Z,1.50
2022-12-31T03:18:00.143Z,1.80
2022-12-31T03:20:49.217Z,1.50
2022-12-31T03:23:21.454Z,3.07
2022-12-31T03:25:49.131Z,1.77
2022-12-31T03:28:20.188Z,1.00
2022-12-31T03:30:50.472Z,1.77
2022-12-31T03:33:20.897Z,1.43
2022-12-31T03:35:50.299Z,3.23
2022-12-31T03:38:19.796Z,4.77
2022-12-31T03:40:49.945Z,3.67
2022-12-31T03:43:19.322Z,2.53
2022-12-31T03:45:50.136Z,3.07
2022-12-31T03:48:19.983Z,3.13
2022-12-31T03:50:48.469Z,5.77
2022-12-31T03:53:17.066Z,2.33
2022-12-31T03:55:45.620Z,4.33
2022-12-31T03:58:13.947Z,2.73
2022-12-31T04:00:42.240Z,2.13
2022-12-31T04:03:10.712Z,3.30
2022-12-31T04:05:40.515Z,2.63
2022-12-31T04:08:08.764Z,5.13
2022-12-31T04:10:36.971Z,2.57
2022-12-31T04:13:05.400Z,3.60
2022-12-31T04:15:33.645Z,2.93
2022-12-31T04:18:01.901Z,2.03
2022-12-31T04:20:30.201Z,2.43
2022-12-31T04:22:59.770Z,2.40
2022-12-31T04:25:28.021Z,3.83
2022-12-31T04:27:56.245Z,4.53
2022-12-31T04:30:24.547Z,1.83
2022-12-31T04:32:55.899Z,3.07
2022-12-31T04:35:24.176Z,2.63
2022-12-31T04:37:54.441Z,5.60
2022-12-31T04:40:25.657Z,2.50
2022-12-31T04:42:53.956Z,2.13
2022-12-31T04:45:22.292Z,1.77
2022-12-31T04:47:50.566Z,3.13
2022-12-31T04:50:19.063Z,2.90
2022-12-31T04:52:47.285Z,1.73
2022-12-31T04:55:15.511Z,1.27
2022-12-31T04:57:45.215Z,1.53
2022-12-31T05:00:15.057Z,2.13
2022-12-31T05:02:43.395Z,2.70
2022-12-31T05:05:11.747Z,1.87
2022-12-31T05:07:40.013Z,2.27
2022-12-31T05:10:11.494Z,1.73
2022-12-31T05:12:42.131Z,3.10
2022-12-31T05:15:12.698Z,1.47
2022-12-31T05:17:40.914Z,2.23
2022-12-31T05:20:14.607Z,3.13
2022-12-31T05:22:43.449Z,0.50
2022-12-31T05:25:20.512Z,1.10
2022-12-31T05:28:00.335Z,3.63
2022-12-31T05:30:34.352Z,0.80
2022-12-31T05:33:03.763Z,1.43
2022-12-31T05:35:37.984Z,1.70
2022-12-31T05:38:08.200Z,1.83
2022-12-31T05:40:40.462Z,2.20
2022-12-31T05:43:14.652Z,0.73
2022-12-31T05:45:44.401Z,1.20
2022-12-31T05:48:16.140Z,1.93
2022-12-31T05:50:45.310Z,0.93
2022-12-31T05:53:14.087Z,3.20
2022-12-31T05:55:49.268Z,0.97
2022-12-31T05:58:19.127Z,1.60
2022-12-31T06:00:50.117Z,1.07
2022-12-31T06:03:18.482Z,1.70
2022-12-31T06:05:49.625Z,0.70
2022-12-31T06:08:19.062Z,1.97
2022-12-31T06:10:47.319Z,1.03
2022-12-31T06:13:15.659Z,1.03
2022-12-31T06:15:43.888Z,1.13
2022-12-31T06:18:13.572Z,0.43
2022-12-31T06:20:41.884Z,1.70
2022-12-31T06:23:10.067Z,1.13
2022-12-31T06:25:38.530Z,0.80
2022-12-31T06:28:07.565Z,1.80
2022-12-31T06:30:35.815Z,1.00
2022-12-31T06:33:04.092Z,1.63
2022-12-31T06:35:33.727Z,1.83
2022-12-31T06:38:02.047Z,1.97
2022-12-31T06:40:30.332Z,2.13
2022-12-31T06:43:00.378Z,1.03
2022-12-31T06:45:28.825Z,2.63
2022-12-31T06:47:57.060Z,2.00
2022-12-31T06:50:25.575Z,2.03
2022-12-31T06:52:56.560Z,1.20
2022-12-31T06:55:25.539Z,3.07
2022-12-31T06:57:54.320Z,3.73
2022-12-31T07:00:23.298Z,3.00
2022-12-31T07:03:15.868Z,3.50
2022-12-31T07:05:48.379Z,2.17
2022-12-31T07:08:37.692Z,0.93
2022-12-31T07:11:12.220Z,1.83
2022-12-31T07:13:53.516Z,1.47
2022-12-31T07:16:36.693Z,3.73
2022-12-31T07:19:16.986Z,3.40
2022-12-31T07:21:46.367Z,1.93
2022-12-31T07:24:17.305Z,2.20
2022-12-31T07:27:00.872Z,2.90
2022-12-31T07:29:40.161Z,2.10
2022-12-31T07:32:21.169Z,1.30
2022-12-31T07:34:57.811Z,1.27
2022-12-31T07:37:36.300Z,4.20
2022-12-31T07:40:13.603Z,1.57
2022-12-31T07:42:57.789Z,1.63
2022-12-31T07:45:30.760Z,1.53
2022-12-31T07:48:02.758Z,2.17
2022-12-31T07:50:32.248Z,3.27
2022-12-31T07:53:01.147Z,3.00
2022-12-31T07:55:30.790Z,2.97
2022-12-31T07:58:07.155Z,6.40
2022-12-31T08:00:35.796Z,1.70
2022-12-31T08:03:14.599Z,3.13
2022-12-31T08:05:52.220Z,1.70
2022-12-31T08:08:34.222Z,4.80
2022-12-31T08:11:13.847Z,2.47
2022-12-31T08:13:43.917Z,3.27
2022-12-31T08:16:15.285Z,2.80
2022-12-31T08:18:44.017Z,2.53
2022-12-31T08:21:31.018Z,4.13
2022-12-31T08:24:14.490Z,1.77
2022-12-31T08:26:53.369Z,2.93
2022-12-31T08:29:35.620Z,1.77
2022-12-31T08:32:13.208Z,0.73
2022-12-31T08:34:52.086Z,1.50
2022-12-31T08:37:27.395Z,1.97
2022-12-31T08:40:09.006Z,2.77
2022-12-31T08:42:42.180Z,2.77
2022-12-31T08:45:18.462Z,3.53
2022-12-31T08:47:59.539Z,2.77
2022-12-31T08:50:29.160Z,3.33
2022-12-31T08:52:59.145Z,3.80
2022-12-31T08:55:28.004Z,2.57
2022-12-31T08:58:09.525Z,3.83
2022-12-31T09:00:39.722Z,3.97
2022-12-31T09:03:21.589Z,4.23
2022-12-31T09:05:58.784Z,4.73
2022-12-31T09:08:36.266Z,3.50
2022-12-31T09:11:11.611Z,5.70
2022-12-31T09:14:14.446Z,1.53
2022-12-31T09:16:50.370Z,4.40
2022-12-31T09:19:18.690Z,2.73
2022-12-31T09:21:47.475Z,3.63
2022-12-31T09:24:17.220Z,6.30
2022-12-31T09:26:55.631Z,4.37
2022-12-31T09:29:38.919Z,2.60
2022-12-31T09:32:15.385Z,5.43
2022-12-31T09:34:50.895Z,5.23
2022-12-31T09:37:22.805Z,3.77
2022-12-31T09:39:51.392Z,4.60
2022-12-31T09:42:49.299Z,3.47
2022-12-31T09:45:41.216Z,3.27
2022-12-31T09:48:43.784Z,2.77
2022-12-31T09:51:25.635Z,4.67
2022-12-31T09:54:30.481Z,2.83
2022-12-31T09:57:15.852Z,2.27
2022-12-31T09:59:50.754Z,5.17
2022-12-31T10:02:42.178Z,3.17
2022-12-31T10:05:34.205Z,4.83
2022-12-31T10:08:07.072Z,3.13
2022-12-31T10:10:45.353Z,2.93
2022-12-31T10:13:32.698Z,4.70
2022-12-31T10:16:25.945Z,4.57
2022-12-31T10:19:27.118Z,1.90
2022-12-31T10:22:08.910Z,3.77
2022-12-31T10:25:00.705Z,4.97
2022-12-31T10:27:49.095Z,2.93
2022-12-31T10:30:19.448Z,3.70
2022-12-31T10:33:07.897Z,3.20
2022-12-31T10:35:44.013Z,6.77
2022-12-31T10:38:26.368Z,4.67
2022-12-31T10:41:26.665Z,4.07
2022-12-31T10:44:16.539Z,3.93
2022-12-31T10:47:15.589Z,3.00
2022-12-31T10:50:12.671Z,5.73
2022-12-31T10:53:19.326Z,2.90
2022-12-31T10:56:09.426Z,3.27
2022-12-31T10:59:16.215Z,2.97
2022-12-31T11:01:56.178Z,6.23
2022-12-31T11:05:10.731Z,5.87
2022-12-31T11:08:00.881Z,3.13
2022-12-31T11:11:11.509Z,6.40
2022-12-31T11:14:21.258Z,5.10
2022-12-31T11:17:05.244Z,3.70
2022-12-31T11:19:40.675Z,3.80
2022-12-31T11:22:30.698Z,3.13
2022-12-31T11:25:19.889Z,3.70
2022-12-31T11:28:03.943Z,3.70
2022-12-31T11:30:42.425Z,7.50
2022-12-31T11:33:22.064Z,4.30
2022-12-31T11:36:13.778Z,3.70
2022-12-31T11:38:46.766Z,5.80
2022-12-31T11:41:25.614Z,1.83
2022-12-31T11:44:03.437Z,5.60
2022-12-31T11:46:59.083Z,3.23
2022-12-31T11:49:43.808Z,2.63
2022-12-31T11:52:47.743Z,6.43
2022-12-31T11:55:38.769Z,3.23
2022-12-31T11:58:16.177Z,4.20
2022-12-31T12:00:54.989Z,2.60
2022-12-31T12:03:24.658Z,5.33
2022-12-31T12:05:53.193Z,6.17
2022-12-31T12:08:21.663Z,5.50
2022-12-31T12:10:54.457Z,3.60
2022-12-31T12:13:26.188Z,3.13
2022-12-31T12:15:59.106Z,6.17
2022-12-31T12:18:36.987Z,3.90
2022-12-31T12:21:10.945Z,4.40
2022-12-31T12:23:40.502Z,3.07
2022-12-31T12:26:26.681Z,4.20
2022-12-31T12:28:56.525Z,4.80
2022-12-31T12:31:26.884Z,4.30
2022-12-31T12:33:55.219Z,6.07
2022-12-31T12:36:23.580Z,3.63
2022-12-31T12:39:03.109Z,3.67
2022-12-31T12:41:32.135Z,3.93
2022-12-31T12:44:07.211Z,3.97
2022-12-31T12:46:44.656Z,4.97
2022-12-31T12:49:23.730Z,5.60
2022-12-31T12:52:10.469Z,5.37
2022-12-31T12:54:50.101Z,3.33
2022-12-31T12:57:23.281Z,8.90
2022-12-31T13:00:04.471Z,5.23
2022-12-31T13:03:19.248Z,9.33
2022-12-31T13:05:56.578Z,3.90
2022-12-31T13:08:36.930Z,6.87
2022-12-31T13:11:25.952Z,8.47
2022-12-31T13:14:03.402Z,8.67
2022-12-31T13:16:41.969Z,5.77
2022-12-31T13:19:17.232Z,6.70
2022-12-31T13:21:55.084Z,5.83
2022-12-31T13:24:40.382Z,6.80
2022-12-31T13:27:16.221Z,3.47
2022-12-31T13:29:48.362Z,11.20
2022-12-31T13:32:21.210Z,5.13
2022-12-31T13:34:53.005Z,7.20
2022-12-31T13:37:28.539Z,5.33
2022-12-31T13:40:02.870Z,7.73
2022-12-31T13:42:41.210Z,7.00
2022-12-31T13:45:14.593Z,7.20
2022-12-31T13:47:49.494Z,5.70
2022-12-31T13:50:25.023Z,6.27
2022-12-31T13:52:58.028Z,6.93
2022-12-31T13:55:29.716Z,6.33
2022-12-31T13:58:07.228Z,5.97
2022-12-31T14:00:42.327Z,7.87
2022-12-31T14:03:20.852Z,8.93
2022-12-31T14:05:56.300Z,4.40
2022-12-31T14:08:24.752Z,5.60
2022-12-31T14:11:02.635Z,6.97
2022-12-31T14:13:54.194Z,5.83
2022-12-31T14:16:31.458Z,6.57
2022-12-31T14:19:11.510Z,3.20
2022-12-31T14:21:46.052Z,5.40
2022-12-31T14:24:16.974Z,9.07
2022-12-31T14:26:49.233Z,6.73
2022-12-31T14:29:36.487Z,6.07
2022-12-31T14:32:27.042Z,5.00
2022-12-31T14:35:07.166Z,7.33
2022-12-31T14:37:43.514Z,7.10
2022-12-31T14:40:20.740Z,6.23
2022-12-31T14:42:59.418Z,9.13
2022-12-31T14:45:40.278Z,4.70
2022-12-31T14:48:22.476Z,8.23
2022-12-31T14:50:52.758Z,7.87
2022-12-31T14:53:24.894Z,5.97
2022-12-31T14:56:02.687Z,5.33
2022-12-31T14:58:34.532Z,5.50
2022-12-31T15:01:08.712Z,3.03
2022-12-31T15:03:45.477Z,6.60
2022-12-31T15:06:48.271Z,7.03
2022-12-31T15:09:35.488Z,5.40
2022-12-31T15:12:18.761Z,6.67
2022-12-31T15:15:06.660Z,5.97
2022-12-31T15:17:45.584Z,6.50
2022-12-31T15:20:28.972Z,8.37
2022-12-31T15:22:58.816Z,5.60
2022-12-31T15:25:38.660Z,9.47
2022-12-31T15:28:24.041Z,4.63
2022-12-31T15:30:54.221Z,5.83
2022-12-31T15:33:30.914Z,5.60
2022-12-31T15:36:11.664Z,6.37
2022-12-31T15:38:42.710Z,6.53
2022-12-31T15:41:26.807Z,5.73
2022-12-31T15:43:59.449Z,5.67
2022-12-31T15:46:31.717Z,6.20
2022-12-31T15:49:11.797Z,5.50
2022-12-31T15:51:48.201Z,7.73
2022-12-31T15:54:25.436Z,6.87
2022-12-31T15:56:55.341Z,4.50
2022-12-31T15:59:26.184Z,3.40
2022-12-31T16:01:57.321Z,7.03
2022-12-31T16:04:28.254Z,3.27
2022-12-31T16:07:00.592Z,4.40
2022-12-31T16:09:34.110Z,4.37
2022-12-31T16:12:05.591Z,4.57
2022-12-31T16:14:37.989Z,4.10
2022-12-31T16:17:08.461Z,5.27
2022-12-31T16:19:42.714Z,5.10
2022-12-31T16:22:17.170Z,3.70
2022-12-31T16:25:29.062Z,8.27
2022-12-31T16:27:42.098Z,7.33
2022-12-31T16:30:22.023Z,3.27
2022-12-31T16:32:52.062Z,6.90
2022-12-31T16:35:29.592Z,6.10
2022-12-31T16:38:14.591Z,4.93
2022-12-31T16:40:47.579Z,7.17
2022-12-31T16:43:29.679Z,6.10
2022-12-31T16:46:08.088Z,6.70
2022-12-31T16:48:36.622Z,5.70
2022-12-31T16:51:06.477Z,5.23
2022-12-31T16:53:38.934Z,4.53
2022-12-31T16:56:10.173Z,4.90
2022-12-31T16:58:45.143Z,5.70
2022-12-31T17:01:17.154Z,5.50
2022-12-31T17:03:48.379Z,5.77
2022-12-31T17:06:18.863Z,5.53
2022-12-31T17:08:51.244Z,6.33
2022-12-31T17:11:24.603Z,7.93
2022-12-31T17:13:56.525Z,6.17
2022-12-31T17:16:25.634Z,5.97
2022-12-31T17:18:54.130Z,3.37
2022-12-31T17:21:26.553Z,3.93
2022-12-31T17:23:57.673Z,4.93
2022-12-31T17:26:29.994Z,4.93
2022-12-31T17:28:59.704Z,6.50
2022-12-31T17:31:34.317Z,6.17
2022-12-31T17:34:20.041Z,5.10
2022-12-31T17:36:58.079Z,5.87
2022-12-31T17:39:27.510Z,7.43
2022-12-31T17:41:59.215Z,4.47
2022-12-31T17:44:29.703Z,7.83
2022-12-31T17:46:58.673Z,11.57
2022-12-31T17:49:31.250Z,3.53
2022-12-31T17:51:59.665Z,4.33
2022-12-31T17:54:27.947Z,5.67
2022-12-31T17:56:58.753Z,6.60
2022-12-31T17:59:35.091Z,7.27
2022-12-31T18:02:05.091Z,5.57
2022-12-31T18:04:33.970Z,5.63
2022-12-31T18:07:02.380Z,5.87
2022-12-31T18:09:30.633Z,7.87
2022-12-31T18:12:04.191Z,5.07
2022-12-31T18:14:33.132Z,5.97
2022-12-31T18:17:01.783Z,5.60
2022-12-31T18:20:02.923Z,7.17
2022-12-31T18:22:18.540Z,8.03
2022-12-31T18:24:47.027Z,4.33
2022-12-31T18:27:18.632Z,7.67
2022-12-31T18:29:47.394Z,6.50
2022-12-31T18:32:21.468Z,6.27
2022-12-31T18:34:49.895Z,4.87
2022-12-31T18:37:21.970Z,4.40
2022-12-31T18:39:50.632Z,8.83
2022-12-31T18:42:21.456Z,7.87
2022-12-31T18:44:49.805Z,6.53
2022-12-31T18:47:20.217Z,7.07
2022-12-31T18:49:48.826Z,6.23
2022-12-31T18:52:19.154Z,6.87
2022-12-31T18:54:47.788Z,6.17
2022-12-31T18:57:17.506Z,6.47
2022-12-31T18:59:47.184Z,4.83
2022-12-31T19:02:18.087Z,8.57
2022-12-31T19:04:46.532Z,5.53
2022-12-31T19:07:14.815Z,5.93
2022-12-31T19:09:46.032Z,7.53
2022-12-31T19:12:15.988Z,6.23
2022-12-31T19:14:45.532Z,3.93
2022-12-31T19:17:15.166Z,5.90
2022-12-31T19:19:43.443Z,8.43
2022-12-31T19:22:15.832Z,6.63
2022-12-31T19:24:44.075Z,10.90
2022-12-31T19:27:17.015Z,7.07
2022-12-31T19:29:45.339Z,6.03
2022-12-31T19:32:15.020Z,5.53
2022-12-31T19:34:43.277Z,6.27
2022-12-31T19:37:14.943Z,6.80
2022-12-31T19:39:43.221Z,5.23
2022-12-31T19:42:16.285Z,6.97
2022-12-31T19:44:44.642Z,4.67
2022-12-31T19:47:14.013Z,7.07
2022-12-31T19:49:43.647Z,7.47
2022-12-31T19:52:12.377Z,7.33
2022-12-31T19:54:40.641Z,8.43
2022-12-31T19:57:08.961Z,10.93
2022-12-31T19:59:37.209Z,6.20
2022-12-31T20:02:06.865Z,10.50
2022-12-31T20:04:35.192Z,6.27
2022-12-31T20:07:05.217Z,6.13
2022-12-31T20:09:33.571Z,7.97
2022-12-31T20:12:01.821Z,9.10
2022-12-31T20:14:30.302Z,6.50
2022-12-31T20:16:58.675Z,4.37
2022-12-31T20:19:27.049Z,7.77
2022-12-31T20:21:55.351Z,8.70
2022-12-31T20:24:25.042Z,5.27
2022-12-31T20:26:53.324Z,4.53
2022-12-31T20:29:21.929Z,3.60
2022-12-31T20:31:50.238Z,4.27
2022-12-31T20:34:18.468Z,4.17
2022-12-31T20:36:46.916Z,11.73
2022-12-31T20:39:15.179Z,5.17
2022-12-31T20:41:44.901Z,8.07
2022-12-31T20:44:13.145Z,5.03
2022-12-31T20:46:41.501Z,6.20
2022-12-31T20:49:11.483Z,3.70
2022-12-31T20:51:39.801Z,9.40
2022-12-31T20:54:10.166Z,6.27
2022-12-31T20:56:40.577Z,6.27
2022-12-31T20:59:11.095Z,6.27
2022-12-31T21:02:11.598Z,6.13
2022-12-31T21:04:27.849Z,5.20
2022-12-31T21:06:56.284Z,5.30
2022-12-31T21:09:24.505Z,2.53
2022-12-31T21:12:09.830Z,6.13
2022-12-31T21:14:44.559Z,7.17
2022-12-31T21:17:13.172Z,3.47
2022-12-31T21:19:41.456Z,6.10
2022-12-31T21:22:09.729Z,8.03
2022-12-31T21:24:39.112Z,6.93
2022-12-31T21:27:07.579Z,6.90
2022-12-31T21:29:41.850Z,7.97
2022-12-31T21:32:20.112Z,11.30
2022-12-31T21:35:06.424Z,8.53
2022-12-31T21:37:57.427Z,9.23
2022-12-31T21:40:24.958Z,6.27
2022-12-31T21:42:53.166Z,6.17
2022-12-31T21:45:21.445Z,5.30
2022-12-31T21:48:08.313Z,7.70
2022-12-31T21:50:36.653Z,6.47
2022-12-31T21:53:05.310Z,6.43
2022-12-31T21:55:50.792Z,4.90
2022-12-31T21:58:27.580Z,5.17
2022-12-31T22:01:15.621Z,7.57
2022-12-31T22:03:46.160Z,5.83
2022-12-31T22:06:20.396Z,6.17
2022-12-31T22:08:51.026Z,9.97
2022-12-31T22:11:21.819Z,6.03
2022-12-31T22:13:50.456Z,6.23
2022-12-31T22:16:20.161Z,4.33
2022-12-31T22:18:50.387Z,7.13
2022-12-31T22:21:20.718Z,5.63
2022-12-31T22:23:50.985Z,5.23
2022-12-31T22:26:21.226Z,6.83
2022-12-31T22:28:50.262Z,4.47
2022-12-31T22:31:20.661Z,6.77
2022-12-31T22:33:50.404Z,5.07
2022-12-31T22:36:20.194Z,4.00
2022-12-31T22:38:49.456Z,5.70
2022-12-31T22:41:19.664Z,6.67
2022-12-31T22:43:49.986Z,9.73
2022-12-31T22:46:20.686Z,8.07
2022-12-31T22:48:50.729Z,10.03
2022-12-31T22:51:20.261Z,6.20
2022-12-31T22:53:48.680Z,3.87
2022-12-31T22:56:18.964Z,5.67
2022-12-31T22:58:47.353Z,7.07
2022-12-31T23:01:19.310Z,7.33
2022-12-31T23:03:48.734Z,7.47
2022-12-31T23:06:19.177Z,5.20
2022-12-31T23:09:12.218Z,4.53
2022-12-31T23:11:40.728Z,6.80
2022-12-31T23:14:26.791Z,7.80
2022-12-31T23:17:30.991Z,6.17
2022-12-31T23:20:18.136Z,5.17
2022-12-31T23:23:05.591Z,5.20
2022-12-31T23:25:34.943Z,11.10
2022-12-31T23:28:03.303Z,8.83
2022-12-31T23:30:32.687Z,6.00
2022-12-31T23:33:01.077Z,6.70
2022-12-31T23:35:29.639Z,5.30
2022-12-31T23:37:59.300Z,4.27
2022-12-31T23:40:34.391Z,7.10
2022-12-31T23:43:04.161Z,6.60
2022-12-31T23:45:33.733Z,6.30
2022-12-31T23:48:02.567Z,3.97
2022-12-31T23:50:30.830Z,8.03
2022-12-31T23:53:00.558Z,6.77
2022-12-31T23:55:28.951Z,5.10
2022-12-31T23:57:57.222Z,6.07
